Terminal Aerodrome Forecast
Issued by NWS

Home | Current Version | Previous Version | Graphics & Text | Print | Product List | Glossary On
Versions: 1 2 3 4 5 6 7 8 9 10 11 12 13 14 15 16 17 18 19 20 21 22 23 24 25 26 27 28 29 30 31 32 33
000
FTUS43 KGRB 190500
TAFRHI
TAF
KRHI 190520Z 1906/2006 23006KT P6SM OVC026
     FM190800 18005KT 4SM -SN SCT015 OVC024
      TEMPO 1908/1912 1 1/2SM -SN OVC015
     FM191200 23006KT 3SM -SN BKN014 OVC025
     FM191800 27009G15KT 6SM -SN BKN022 OVC035
     FM200000 27008KT P6SM -SN BKN020 OVC035=

USA.gov is the U.S. government's official web portal to all federal, state and local government web resources and services.